Time;durP1;ratioP1;P1;durP2;ratioP2;P2;SDS_P1;SDS_P2;PMS_P1;PMS_P2;Temp;Humidity;BMP_temperature;BMP_pressure;BME280_temperature;BME280_humidity;BME280_pressure;Samples;Min_cycle;Max_cycle;Signal;HPM_P1;HPM_P2
2023/08/31 00:01:23;;;;;;;12.18;2.92;;;;;;;;;;12839210;23;20307;-73
2023/08/31 00:06:24;;;;;;;8.35;2.33;;;;;;;;;;12886596;23;20031;-73
2023/08/31 00:11:25;;;;;;;5.28;1.95;;;;;;;;;;12886403;23;20194;-73
2023/08/31 00:16:26;;;;;;;4.20;2.10;;;;;;;;;;12886704;23;20096;-73
2023/08/31 00:21:27;;;;;;;2.85;1.70;;;;;;;;;;12887371;23;20285;-74
2023/08/31 00:26:27;;;;;;;3.80;1.67;;;;;;;;;;12886546;23;20302;-73
2023/08/31 00:31:27;;;;;;;8.57;2.70;;;;;;;;;;12886255;23;19997;-73
2023/08/31 00:36:28;;;;;;;4.77;1.90;;;;;;;;;;12885958;23;20103;-73
2023/08/31 00:41:28;;;;;;;9.07;2.38;;;;;;;;;;12838548;23;20004;-73
2023/08/31 00:46:29;;;;;;;5.38;1.90;;;;;;;;;;12886085;23;19999;-73
2023/08/31 00:51:29;;;;;;;3.63;1.80;;;;;;;;;;12885647;23;19996;-74
2023/08/31 00:56:30;;;;;;;4.72;2.42;;;;;;;;;;12885641;23;20039;-73
2023/08/31 01:01:36;;;;;;;8.10;2.28;;;;;;;;;;12872228;23;20040;-73
2023/08/31 01:06:41;;;;;;;8.50;2.13;;;;;;;;;;12885409;23;19988;-73
2023/08/31 01:12:03;;;;;;;5.78;2.30;;;;;;;;;;12837692;23;20187;-73
2023/08/31 01:17:04;;;;;;;7.40;2.13;;;;;;;;;;12885143;23;19989;-73
2023/08/31 01:22:07;;;;;;;5.43;2.42;;;;;;;;;;12885331;23;19993;-74
2023/08/31 01:27:07;;;;;;;5.18;2.20;;;;;;;;;;12885183;23;20358;-73
2023/08/31 01:32:08;;;;;;;5.55;2.45;;;;;;;;;;12884536;23;20420;-73
2023/08/31 01:37:10;;;;;;;4.70;2.03;;;;;;;;;;12883904;23;19995;-74
2023/08/31 01:42:13;;;;;;;5.70;2.17;;;;;;;;;;12885326;23;20402;-74
2023/08/31 01:47:15;;;;;;;4.68;2.00;;;;;;;;;;12885209;23;20023;-74
2023/08/31 01:52:15;;;;;;;5.57;1.85;;;;;;;;;;12884710;23;19997;-73
2023/08/31 01:57:15;;;;;;;6.32;2.28;;;;;;;;;;12884519;23;19996;-74
2023/08/31 02:02:15;;;;;;;7.93;1.83;;;;;;;;;;12868063;23;20012;-74
2023/08/31 02:07:16;;;;;;;6.18;2.08;;;;;;;;;;12884752;23;19996;-74
2023/08/31 02:12:16;;;;;;;3.55;1.88;;;;;;;;;;12884486;23;20063;-74
2023/08/31 02:17:16;;;;;;;6.47;1.80;;;;;;;;;;12884222;23;20294;-74
2023/08/31 02:22:17;;;;;;;6.63;1.90;;;;;;;;;;12883881;23;20074;-74
2023/08/31 02:27:17;;;;;;;7.73;2.30;;;;;;;;;;12884260;23;20314;-75
2023/08/31 02:32:17;;;;;;;5.18;1.77;;;;;;;;;;12883944;23;20051;-75
2023/08/31 02:37:17;;;;;;;5.30;2.40;;;;;;;;;;12884113;23;19996;-75
2023/08/31 02:42:18;;;;;;;7.78;2.22;;;;;;;;;;12883873;23;19988;-74
2023/08/31 02:47:18;;;;;;;4.85;1.75;;;;;;;;;;12883768;23;20003;-74
2023/08/31 02:52:18;;;;;;;4.45;1.90;;;;;;;;;;12883682;23;20211;-74
2023/08/31 02:57:19;;;;;;;4.73;1.83;;;;;;;;;;12883960;23;20051;-74
2023/08/31 03:02:20;;;;;;;9.32;2.88;;;;;;;;;;12866887;23;20428;-74
2023/08/31 03:07:20;;;;;;;4.78;1.75;;;;;;;;;;12835848;23;20022;-74
2023/08/31 03:12:20;;;;;;;11.85;5.07;;;;;;;;;;12883440;23;20247;-73
2023/08/31 03:17:20;;;;;;;14.30;4.10;;;;;;;;;;12883282;23;20050;-74
2023/08/31 03:22:21;;;;;;;4.43;2.27;;;;;;;;;;12882929;23;19993;-74
2023/08/31 03:27:21;;;;;;;10.10;2.55;;;;;;;;;;12883055;23;20311;-73
2023/08/31 03:32:21;;;;;;;10.00;2.40;;;;;;;;;;12883596;23;20004;-74
2023/08/31 03:37:22;;;;;;;11.80;2.75;;;;;;;;;;12886822;23;20145;-73
2023/08/31 03:42:22;;;;;;;5.67;2.37;;;;;;;;;;12886903;23;20174;-75
2023/08/31 03:47:22;;;;;;;7.63;3.30;;;;;;;;;;12887046;23;20333;-75
2023/08/31 03:52:23;;;;;;;8.65;3.10;;;;;;;;;;12886941;23;20004;-74
2023/08/31 03:57:23;;;;;;;12.43;2.27;;;;;;;;;;12838969;23;19999;-74
2023/08/31 04:02:23;;;;;;;5.90;2.10;;;;;;;;;;12869367;23;20325;-75
2023/08/31 04:07:23;;;;;;;8.77;3.05;;;;;;;;;;12886014;23;19988;-74
2023/08/31 04:12:24;;;;;;;7.07;2.17;;;;;;;;;;12838368;23;20067;-74
2023/08/31 04:17:24;;;;;;;5.65;2.30;;;;;;;;;;12838104;23;19996;-75
2023/08/31 04:27:38;;;;;;;5.18;2.22;;;;;;;;;;12726542;23;20021;-78
2023/08/31 04:32:39;;;;;;;7.68;3.10;;;;;;;;;;12699970;23;20195;-79
2023/08/31 04:37:40;;;;;;;7.38;2.72;;;;;;;;;;12743965;23;20088;-79
2023/08/31 04:42:42;;;;;;;6.07;2.67;;;;;;;;;;12705841;23;19997;-79
2023/08/31 04:47:42;;;;;;;7.20;2.08;;;;;;;;;;12704361;23;20022;-78
2023/08/31 04:52:43;;;;;;;10.60;2.72;;;;;;;;;;12708453;23;20090;-79
2023/08/31 04:57:57;;;;;;;11.82;2.95;;;;;;;;;;12742361;23;20004;-78
2023/08/31 05:03:06;;;;;;;7.90;2.85;;;;;;;;;;12749573;23;20001;-78
2023/08/31 05:08:07;;;;;;;10.05;2.55;;;;;;;;;;12702685;23;20092;-78
2023/08/31 05:13:08;;;;;;;7.20;2.13;;;;;;;;;;12708122;23;20097;-86
2023/08/31 05:18:08;;;;;;;7.40;2.20;;;;;;;;;;12707001;23;20113;-79
2023/08/31 05:23:09;;;;;;;8.25;2.72;;;;;;;;;;12701294;23;20013;-77
2023/08/31 05:28:10;;;;;;;8.63;3.05;;;;;;;;;;12709541;23;19997;-86
2023/08/31 05:33:11;;;;;;;12.68;3.03;;;;;;;;;;12740673;23;20435;-78
2023/08/31 05:38:12;;;;;;;8.48;1.73;;;;;;;;;;12707624;23;19998;-77
2023/08/31 05:43:17;;;;;;;7.35;2.28;;;;;;;;;;12758725;23;19997;-83
2023/08/31 05:48:18;;;;;;;6.78;2.03;;;;;;;;;;12749883;23;20027;-73
2023/08/31 05:53:18;;;;;;;6.07;1.90;;;;;;;;;;12735032;23;19997;-79
2023/08/31 05:58:18;;;;;;;5.95;2.95;;;;;;;;;;12705675;23;19993;-78
2023/08/31 06:03:19;;;;;;;4.88;1.60;;;;;;;;;;12705273;23;20447;-78
2023/08/31 06:08:20;;;;;;;12.50;3.47;;;;;;;;;;12705493;23;19993;-81
2023/08/31 06:13:20;;;;;;;9.88;3.60;;;;;;;;;;12755477;23;20385;-78
2023/08/31 06:18:21;;;;;;;11.53;3.53;;;;;;;;;;12721095;23;20005;-79
2023/08/31 06:23:21;;;;;;;11.03;2.50;;;;;;;;;;12705716;23;20438;-85
2023/08/31 06:28:22;;;;;;;8.10;2.30;;;;;;;;;;12693009;23;20417;-77
2023/08/31 06:33:27;;;;;;;7.90;3.33;;;;;;;;;;12763665;23;20052;-81
2023/08/31 06:38:27;;;;;;;10.07;3.03;;;;;;;;;;12708836;23;19994;-75
2023/08/31 06:43:27;;;;;;;13.75;2.08;;;;;;;;;;12702565;23;19993;-76
2023/08/31 06:48:29;;;;;;;7.53;2.40;;;;;;;;;;12704967;23;20008;-81
2023/08/31 06:53:35;;;;;;;3.83;1.70;;;;;;;;;;12703637;23;19994;-81
2023/08/31 06:58:56;;;;;;;9.07;2.22;;;;;;;;;;12734682;23;20064;-79
2023/08/31 07:03:57;;;;;;;7.50;2.00;;;;;;;;;;12681808;23;20088;-75
2023/08/31 07:08:57;;;;;;;7.25;2.45;;;;;;;;;;12704634;23;20029;-77
2023/08/31 07:13:57;;;;;;;6.50;1.67;;;;;;;;;;12706029;23;20005;-78
2023/08/31 07:18:59;;;;;;;4.85;1.98;;;;;;;;;;12710061;23;20004;-85
2023/08/31 07:24:01;;;;;;;10.10;2.28;;;;;;;;;;12738997;23;20088;-78
2023/08/31 07:29:04;;;;;;;7.00;1.98;;;;;;;;;;12706542;23;19997;-77
2023/08/31 07:34:04;;;;;;;6.28;1.77;;;;;;;;;;12726305;23;20029;-78
2023/08/31 07:39:05;;;;;;;9.25;1.80;;;;;;;;;;12736836;23;19993;-76
2023/08/31 07:44:06;;;;;;;6.07;1.77;;;;;;;;;;12765687;23;20044;-70
2023/08/31 07:49:07;;;;;;;5.15;1.70;;;;;;;;;;12713864;23;20132;-80
2023/08/31 07:54:07;;;;;;;10.57;1.77;;;;;;;;;;12710977;23;20056;-78
2023/08/31 07:59:08;;;;;;;4.15;1.77;;;;;;;;;;12754930;23;20245;-81
2023/08/31 08:04:08;;;;;;;7.50;1.70;;;;;;;;;;12683220;23;19997;-69
2023/08/31 08:09:08;;;;;;;5.53;1.90;;;;;;;;;;12708687;23;20001;-78
2023/08/31 08:14:08;;;;;;;7.30;2.00;;;;;;;;;;12706436;23;20009;-80
2023/08/31 08:19:09;;;;;;;17.80;1.90;;;;;;;;;;12707612;23;19998;-84
2023/08/31 08:24:09;;;;;;;8.25;1.80;;;;;;;;;;12706834;23;20466;-77
2023/08/31 08:29:10;;;;;;;11.88;1.88;;;;;;;;;;12711999;23;19994;-74
2023/08/31 08:34:10;;;;;;;6.97;1.75;;;;;;;;;;12708931;23;20016;-76
2023/08/31 08:39:10;;;;;;;7.50;2.95;;;;;;;;;;12751705;23;19993;-78
2023/08/31 08:44:12;;;;;;;9.17;3.23;;;;;;;;;;12754486;23;19996;-76
2023/08/31 08:49:13;;;;;;;8.98;2.95;;;;;;;;;;12705676;23;20016;-77
2023/08/31 08:54:13;;;;;;;7.65;2.92;;;;;;;;;;12704403;23;20465;-77
2023/08/31 08:59:14;;;;;;;6.47;3.00;;;;;;;;;;12706800;23;20414;-78
2023/08/31 09:04:14;;;;;;;8.83;3.20;;;;;;;;;;12753080;23;20261;-76
2023/08/31 09:09:16;;;;;;;6.93;3.00;;;;;;;;;;12753758;23;19994;-81
2023/08/31 09:14:17;;;;;;;8.00;3.03;;;;;;;;;;12707951;23;20710;-77
2023/08/31 09:19:19;;;;;;;6.57;3.33;;;;;;;;;;12706254;23;20021;-78
2023/08/31 09:24:19;;;;;;;6.15;2.70;;;;;;;;;;12702976;23;20386;-78
2023/08/31 09:29:19;;;;;;;8.02;3.00;;;;;;;;;;12680068;23;20002;-75
2023/08/31 09:34:20;;;;;;;5.97;2.88;;;;;;;;;;12705347;23;20005;-73
2023/08/31 09:39:20;;;;;;;8.87;2.90;;;;;;;;;;12704941;23;19993;-72
2023/08/31 09:44:21;;;;;;;5.15;2.83;;;;;;;;;;12712749;23;19998;-83
2023/08/31 09:49:22;;;;;;;6.20;2.65;;;;;;;;;;12681110;23;20012;-74
2023/08/31 09:54:26;;;;;;;6.88;3.28;;;;;;;;;;12703154;23;20001;-80
2023/08/31 09:59:36;;;;;;;5.65;2.92;;;;;;;;;;12683565;23;20064;-86
2023/08/31 10:04:39;;;;;;;5.28;3.50;;;;;;;;;;12705648;23;20008;-80
2023/08/31 10:09:41;;;;;;;7.50;3.50;;;;;;;;;;12703723;23;19997;-81
2023/08/31 10:14:52;;;;;;;7.07;3.80;;;;;;;;;;12711901;23;20080;-80
2023/08/31 10:19:54;;;;;;;7.35;3.30;;;;;;;;;;12724866;23;20000;-73
2023/08/31 10:24:58;;;;;;;7.43;3.25;;;;;;;;;;12687993;23;20029;-79
2023/08/31 10:30:12;;;;;;;4.55;2.60;;;;;;;;;;12707981;23;19997;-77
2023/08/31 10:35:12;;;;;;;6.10;3.03;;;;;;;;;;12731808;23;20008;-68
2023/08/31 10:40:12;;;;;;;6.18;3.35;;;;;;;;;;12759394;23;20461;-80
2023/08/31 10:45:14;;;;;;;8.83;3.40;;;;;;;;;;12679957;23;19997;-75
2023/08/31 10:50:19;;;;;;;7.20;3.50;;;;;;;;;;12751300;23;20712;-75
2023/08/31 10:55:26;;;;;;;6.00;3.80;;;;;;;;;;12701862;23;20002;-77
2023/08/31 11:00:45;;;;;;;9.98;2.92;;;;;;;;;;12701926;23;20061;-77
2023/08/31 11:05:52;;;;;;;4.95;2.83;;;;;;;;;;12702557;23;19993;-78
2023/08/31 11:10:52;;;;;;;5.03;2.97;;;;;;;;;;12715744;23;20006;-82
2023/08/31 11:15:55;;;;;;;5.28;3.05;;;;;;;;;;12729880;23;20016;-74
2023/08/31 11:20:57;;;;;;;6.15;2.95;;;;;;;;;;12705472;23;20009;-77
2023/08/31 11:25:58;;;;;;;6.65;3.28;;;;;;;;;;12733320;23;20032;-82
2023/08/31 11:30:58;;;;;;;9.25;3.08;;;;;;;;;;12707678;23;20346;-81
2023/08/31 11:36:00;;;;;;;7.22;2.97;;;;;;;;;;12707726;23;19997;-81
2023/08/31 11:41:01;;;;;;;5.00;2.90;;;;;;;;;;12729279;23;20000;-76
2023/08/31 11:46:04;;;;;;;4.72;2.90;;;;;;;;;;12705884;23;20021;-80
2023/08/31 11:51:04;;;;;;;8.50;2.97;;;;;;;;;;12704475;23;20004;-77
2023/08/31 11:56:04;;;;;;;7.20;2.93;;;;;;;;;;12681491;23;20031;-82
2023/08/31 12:01:05;;;;;;;10.15;2.28;;;;;;;;;;12707822;23;20055;-77
2023/08/31 12:06:06;;;;;;;4.97;2.53;;;;;;;;;;12707202;23;19994;-76
2023/08/31 12:11:09;;;;;;;9.45;4.60;;;;;;;;;;12756137;23;19993;-84
2023/08/31 12:16:13;;;;;;;5.32;2.55;;;;;;;;;;12716111;23;19997;-83
2023/08/31 12:21:14;;;;;;;5.65;2.55;;;;;;;;;;12706038;23;19998;-76
2023/08/31 12:26:14;;;;;;;6.43;3.20;;;;;;;;;;12707542;23;20390;-73
2023/08/31 12:31:15;;;;;;;5.03;2.83;;;;;;;;;;12706340;23;20346;-76
2023/08/31 12:36:16;;;;;;;5.35;2.25;;;;;;;;;;12753399;23;20422;-77
2023/08/31 12:41:16;;;;;;;5.55;2.40;;;;;;;;;;12704477;23;20005;-75
2023/08/31 12:46:17;;;;;;;6.93;3.05;;;;;;;;;;12704473;23;20001;-76
2023/08/31 12:51:17;;;;;;;5.85;2.95;;;;;;;;;;12708555;23;20044;-80
2023/08/31 12:56:21;;;;;;;6.85;2.58;;;;;;;;;;12709043;23;20076;-80
2023/08/31 13:01:26;;;;;;;6.68;2.42;;;;;;;;;;12711391;23;20001;-80
2023/08/31 13:06:28;;;;;;;3.95;2.38;;;;;;;;;;12683081;23;20002;-77
2023/08/31 13:11:30;;;;;;;8.48;2.78;;;;;;;;;;12694188;23;20035;-79
2023/08/31 13:16:32;;;;;;;6.88;2.33;;;;;;;;;;12706012;23;19998;-74
2023/08/31 13:21:32;;;;;;;9.77;2.60;;;;;;;;;;12755986;23;20028;-74
2023/08/31 13:26:32;;;;;;;10.83;2.97;;;;;;;;;;12707329;23;20025;-76
2023/08/31 13:31:33;;;;;;;4.45;2.33;;;;;;;;;;12705053;23;20737;-77
2023/08/31 13:36:34;;;;;;;11.88;3.53;;;;;;;;;;12708287;23;20008;-76
2023/08/31 13:41:46;;;;;;;7.43;2.55;;;;;;;;;;12756120;23;20037;-78
2023/08/31 13:46:49;;;;;;;6.50;2.17;;;;;;;;;;12707379;23;20528;-83
2023/08/31 13:51:50;;;;;;;5.95;2.03;;;;;;;;;;12706116;23;20002;-75
2023/08/31 13:56:51;;;;;;;4.78;2.30;;;;;;;;;;12758947;23;19996;-79
2023/08/31 14:01:51;;;;;;;6.22;2.50;;;;;;;;;;12716953;23;20001;-75
2023/08/31 14:06:52;;;;;;;4.78;2.17;;;;;;;;;;12700407;23;20028;-77
2023/08/31 14:11:54;;;;;;;8.55;3.65;;;;;;;;;;12714233;23;20092;-77
2023/08/31 14:16:55;;;;;;;5.22;2.17;;;;;;;;;;12702935;23;20001;-76
2023/08/31 14:21:55;;;;;;;7.15;2.10;;;;;;;;;;12703530;23;20005;-76
2023/08/31 14:26:55;;;;;;;7.55;2.20;;;;;;;;;;12703530;23;20025;-78
2023/08/31 14:31:56;;;;;;;6.43;2.35;;;;;;;;;;12703304;23;20052;-80
2023/08/31 14:36:59;;;;;;;7.55;2.58;;;;;;;;;;12741830;23;20342;-77
2023/08/31 14:41:59;;;;;;;6.60;2.75;;;;;;;;;;12749918;23;19990;-77
2023/08/31 14:47:03;;;;;;;7.18;2.78;;;;;;;;;;12705193;23;19998;-79
2023/08/31 14:52:05;;;;;;;4.80;2.58;;;;;;;;;;12703765;23;20006;-77
2023/08/31 14:57:06;;;;;;;9.38;2.78;;;;;;;;;;12703093;23;20001;-73
2023/08/31 15:02:06;;;;;;;9.23;2.83;;;;;;;;;;12756151;23;20053;-75
2023/08/31 15:07:06;;;;;;;5.17;2.60;;;;;;;;;;12751823;23;19995;-79
2023/08/31 15:12:08;;;;;;;8.18;2.83;;;;;;;;;;12703387;23;20349;-77
2023/08/31 15:17:09;;;;;;;5.80;2.67;;;;;;;;;;12751654;23;19992;-79
2023/08/31 15:22:09;;;;;;;9.10;2.95;;;;;;;;;;12702323;23;20076;-80
2023/08/31 15:27:09;;;;;;;10.80;3.63;;;;;;;;;;12703413;23;20505;-78
2023/08/31 15:32:09;;;;;;;7.20;2.40;;;;;;;;;;12707401;23;20001;-78
2023/08/31 15:37:11;;;;;;;6.70;3.22;;;;;;;;;;12702233;23;19997;-81
2023/08/31 15:42:13;;;;;;;7.20;2.58;;;;;;;;;;12733757;23;20073;-79
2023/08/31 15:47:14;;;;;;;5.10;1.90;;;;;;;;;;12699794;23;20467;-80
2023/08/31 15:52:14;;;;;;;5.78;2.00;;;;;;;;;;12702871;23;20012;-78
2023/08/31 15:57:18;;;;;;;6.18;3.03;;;;;;;;;;12711410;23;20005;-82
2023/08/31 16:02:24;;;;;;;3.80;2.20;;;;;;;;;;12713540;23;20041;-70
2023/08/31 16:07:26;;;;;;;4.45;2.10;;;;;;;;;;12703905;23;20521;-74
2023/08/31 16:12:27;;;;;;;5.45;2.15;;;;;;;;;;12713456;23;20033;-78
2023/08/31 16:17:27;;;;;;;7.53;2.47;;;;;;;;;;12755185;23;19990;-78
2023/08/31 16:22:27;;;;;;;5.63;2.10;;;;;;;;;;12752542;23;20001;-76
2023/08/31 16:27:29;;;;;;;3.43;2.37;;;;;;;;;;12753274;23;20045;-77
2023/08/31 16:32:30;;;;;;;9.93;3.22;;;;;;;;;;12707287;23;20009;-79
2023/08/31 16:37:30;;;;;;;8.43;3.08;;;;;;;;;;12706000;23;20120;-81
2023/08/31 16:42:31;;;;;;;3.33;2.05;;;;;;;;;;12704823;23;19998;-76
2023/08/31 16:47:31;;;;;;;6.45;2.00;;;;;;;;;;12708606;23;20001;-76
2023/08/31 16:52:33;;;;;;;4.10;2.42;;;;;;;;;;12756955;23;20088;-75
2023/08/31 16:57:34;;;;;;;6.05;1.90;;;;;;;;;;12708160;23;20008;-82
2023/08/31 17:02:34;;;;;;;9.90;2.63;;;;;;;;;;12706398;23;20057;-77
2023/08/31 17:07:34;;;;;;;5.72;2.88;;;;;;;;;;12704245;23;19997;-79
2023/08/31 17:12:53;;;;;;;4.78;2.22;;;;;;;;;;12714378;23;20002;-72
2023/08/31 17:17:53;;;;;;;5.05;2.92;;;;;;;;;;12716436;23;20364;-78
2023/08/31 17:22:54;;;;;;;2.83;1.65;;;;;;;;;;12706031;23;20002;-76
2023/08/31 17:27:58;;;;;;;3.53;1.80;;;;;;;;;;12752355;23;20140;-77
2023/08/31 17:32:58;;;;;;;4.22;2.20;;;;;;;;;;12734106;23;20017;-75
2023/08/31 17:38:00;;;;;;;5.60;2.03;;;;;;;;;;12757607;23;20052;-73
2023/08/31 17:43:04;;;;;;;6.10;1.98;;;;;;;;;;12708512;23;20001;-74
2023/08/31 17:48:04;;;;;;;4.50;2.10;;;;;;;;;;12711027;23;20354;-76
2023/08/31 17:53:04;;;;;;;5.27;1.90;;;;;;;;;;12706458;23;20005;-76
2023/08/31 17:58:05;;;;;;;5.50;2.20;;;;;;;;;;12766876;23;19994;-79
2023/08/31 18:03:05;;;;;;;4.60;2.13;;;;;;;;;;12713895;23;19998;-78
2023/08/31 18:08:06;;;;;;;5.80;1.80;;;;;;;;;;12713413;23;19998;-74
2023/08/31 18:13:07;;;;;;;3.57;1.73;;;;;;;;;;12728098;23;20005;-78
2023/08/31 18:18:14;;;;;;;4.90;2.08;;;;;;;;;;12776847;23;19986;-79
2023/08/31 18:23:15;;;;;;;5.17;2.37;;;;;;;;;;12772532;23;20001;-74
2023/08/31 18:28:16;;;;;;;4.50;2.40;;;;;;;;;;12775367;23;20519;-69
2023/08/31 18:33:38;;;;;;;9.23;2.97;;;;;;;;;;12731965;23;20407;-73
2023/08/31 18:38:38;;;;;;;4.10;2.50;;;;;;;;;;12725980;23;20032;-73
2023/08/31 18:43:42;;;;;;;4.82;2.35;;;;;;;;;;12729879;23;20006;-78
2023/08/31 18:48:42;;;;;;;5.32;2.25;;;;;;;;;;12711321;23;20009;-76
2023/08/31 18:53:43;;;;;;;7.43;2.58;;;;;;;;;;12745021;23;20025;-74
2023/08/31 18:58:44;;;;;;;3.77;2.00;;;;;;;;;;12719334;23;20024;-76
2023/08/31 19:03:46;;;;;;;9.40;3.05;;;;;;;;;;12706924;23;20001;-70
2023/08/31 19:08:47;;;;;;;12.30;3.13;;;;;;;;;;12756421;23;19997;-78
2023/08/31 19:13:49;;;;;;;4.93;2.50;;;;;;;;;;12697645;23;20035;-76
2023/08/31 19:18:49;;;;;;;5.57;2.63;;;;;;;;;;12696168;23;20059;-75
2023/08/31 19:23:49;;;;;;;6.47;2.08;;;;;;;;;;12693975;23;20490;-79
2023/08/31 19:28:52;;;;;;;6.97;2.70;;;;;;;;;;12744694;23;20048;-75
2023/08/31 19:33:53;;;;;;;3.45;1.92;;;;;;;;;;12747559;23;20009;-76
2023/08/31 19:38:53;;;;;;;4.93;2.45;;;;;;;;;;12702797;23;20002;-77
2023/08/31 19:43:54;;;;;;;9.38;2.92;;;;;;;;;;12700132;23;20006;-75
2023/08/31 19:48:55;;;;;;;6.20;2.25;;;;;;;;;;12700423;23;20005;-78
2023/08/31 19:53:55;;;;;;;8.43;2.53;;;;;;;;;;12692147;23;20016;-79
2023/08/31 19:58:58;;;;;;;4.43;2.70;;;;;;;;;;12735640;23;19993;-78
2023/08/31 20:03:59;;;;;;;6.10;3.20;;;;;;;;;;12701077;23;20001;-74
2023/08/31 20:09:22;;;;;;;5.50;2.42;;;;;;;;;;12756206;23;20319;-70
2023/08/31 20:14:23;;;;;;;5.40;3.03;;;;;;;;;;12737247;23;20128;-74
2023/08/31 20:19:24;;;;;;;5.80;2.78;;;;;;;;;;12748192;23;20025;-76
2023/08/31 20:24:24;;;;;;;5.47;3.20;;;;;;;;;;12696132;23;20021;-75
2023/08/31 20:29:25;;;;;;;6.03;2.87;;;;;;;;;;12702005;23;20025;-77
2023/08/31 20:34:25;;;;;;;7.10;2.38;;;;;;;;;;12680375;23;20021;-79
2023/08/31 20:39:27;;;;;;;8.82;2.88;;;;;;;;;;12704045;23;20568;-76
2023/08/31 20:44:29;;;;;;;9.30;3.50;;;;;;;;;;12707312;23;20434;-77
2023/08/31 20:49:31;;;;;;;9.70;3.20;;;;;;;;;;12703001;23;20008;-77
2023/08/31 20:54:31;;;;;;;8.20;4.40;;;;;;;;;;12694467;23;20005;-78
2023/08/31 20:59:31;;;;;;;5.18;2.60;;;;;;;;;;12697019;23;20096;-76
2023/08/31 21:04:31;;;;;;;5.47;3.10;;;;;;;;;;12696753;23;20013;-76
2023/08/31 21:09:32;;;;;;;6.93;3.53;;;;;;;;;;12697566;23;20460;-79
2023/08/31 21:14:32;;;;;;;4.50;3.22;;;;;;;;;;12697931;23;20006;-76
2023/08/31 21:19:34;;;;;;;8.50;3.38;;;;;;;;;;12708098;23;19997;-76
2023/08/31 21:24:36;;;;;;;6.90;3.38;;;;;;;;;;12674158;23;20040;-75
2023/08/31 21:29:38;;;;;;;5.50;2.88;;;;;;;;;;12712743;23;20096;-73
2023/08/31 21:34:41;;;;;;;7.32;3.00;;;;;;;;;;12709557;23;20017;-72
2023/08/31 21:39:43;;;;;;;13.93;3.38;;;;;;;;;;12725284;23;20005;-72
2023/08/31 21:44:44;;;;;;;7.78;3.35;;;;;;;;;;12746344;23;20029;-71
2023/08/31 21:49:45;;;;;;;8.05;3.40;;;;;;;;;;12719312;23;19997;-74
2023/08/31 21:54:45;;;;;;;8.73;3.53;;;;;;;;;;12695248;23;20008;-75
2023/08/31 21:59:52;;;;;;;8.38;3.13;;;;;;;;;;12694294;23;20521;-77
2023/08/31 22:04:53;;;;;;;7.47;2.88;;;;;;;;;;12749448;23;20072;-72
2023/08/31 22:09:55;;;;;;;7.00;2.40;;;;;;;;;;12741848;23;20005;-77
2023/08/31 22:14:56;;;;;;;8.30;2.95;;;;;;;;;;12738533;23;20353;-70
2023/08/31 22:19:56;;;;;;;6.97;3.10;;;;;;;;;;12881155;23;20011;-69
2023/08/31 22:24:56;;;;;;;5.10;2.75;;;;;;;;;;12879502;23;20008;-71
2023/08/31 22:29:57;;;;;;;4.55;2.30;;;;;;;;;;12879339;23;20190;-71
2023/08/31 22:34:57;;;;;;;5.63;2.97;;;;;;;;;;12879847;23;19996;-70
2023/08/31 22:39:58;;;;;;;4.65;2.40;;;;;;;;;;12880122;23;20012;-70
2023/08/31 22:44:58;;;;;;;3.87;2.60;;;;;;;;;;12878744;23;20042;-70
2023/08/31 22:49:58;;;;;;;6.17;2.63;;;;;;;;;;12881706;23;20295;-70
2023/08/31 22:54:59;;;;;;;10.15;3.13;;;;;;;;;;12883110;23;20237;-70
2023/08/31 22:59:59;;;;;;;8.25;2.95;;;;;;;;;;12883313;23;20005;-70
2023/08/31 23:05:00;;;;;;;6.88;2.50;;;;;;;;;;12882903;23;19992;-71
2023/08/31 23:10:00;;;;;;;6.32;2.08;;;;;;;;;;12883087;23;20271;-70
2023/08/31 23:15:00;;;;;;;4.23;2.43;;;;;;;;;;12876468;23;20072;-70
2023/08/31 23:20:00;;;;;;;6.18;2.75;;;;;;;;;;12882939;23;20009;-70
2023/08/31 23:25:01;;;;;;;8.10;2.65;;;;;;;;;;12835100;23;20000;-70
2023/08/31 23:30:02;;;;;;;5.32;3.40;;;;;;;;;;12882904;23;20043;-70
2023/08/31 23:35:02;;;;;;;7.60;2.80;;;;;;;;;;12882425;23;20044;-70
2023/08/31 23:40:08;;;;;;;8.53;3.07;;;;;;;;;;12882276;23;20008;-71
2023/08/31 23:45:09;;;;;;;6.72;2.58;;;;;;;;;;12850439;23;20228;-71
2023/08/31 23:50:09;;;;;;;7.20;2.63;;;;;;;;;;12883718;23;20194;-71
2023/08/31 23:55:09;;;;;;;5.45;3.17;;;;;;;;;;12839181;23;20568;-71
